Nearby METAR Reports

 

KW29 - Stevensville, Maryland, USA
Distance from station: SSW 13mi, 21km
Updated: Sat, 20-Apr-2019 10:20pm EDT
Mostly cloudy
Mostly cloudy
 Wind from SSW
Wind: SSW 5 mph , 7 km/h
Temperature: 63°F , 17°C
Dew Point: 46°F , 8°C
Humidity: 56%
Barometer: 29.80 inHg , 1009.1 hPa
Clouds: Mostly cloudy
Visibility: 10 miles , 16 km
Cloud details: Mostly cloudy 7500 ft
2019/04/21 02:20 KW29 210220Z AUTO 21004KT 10SM BKN075 17/08 A2980 RMK AO2
KMTN - Baltimore/Martin, Maryland, USA
Distance from station: NW 13mi, 22km
Updated: Sat, 20-Apr-2019 10:21pm EDT
Mostly cloudy
Mostly cloudy
 Wind from SSE
Wind: SSE 6 mph , 9 km/h
Temperature: 63°F , 17°C
Dew Point: 48°F , 9°C
Humidity: 59%
Barometer: 29.80 inHg , 1009.1 hPa
Clouds: Mostly cloudy
Visibility: 10 miles , 16 km
Cloud details: Mostly cloudy 10000 ft
2019/04/21 02:21 KMTN 210221Z AUTO 15005KT 10SM BKN100 17/09 A2980 RMK AO2
 
KNAK - Annapolis/Naval, Maryland, USA
Distance from station: SW 18mi, 28km
Updated: Sat, 20-Apr-2019 9:54pm EDT
Clear
Clear
 Wind from S
Wind: S 7 mph , 11 km/h
Temperature: 64°F , 18°C
Dew Point: 43°F , 6°C
Humidity: 46%
Barometer: 29.78 inHg , 1008.5 hPa
Clouds: Clear
Visibility: 10 miles , 16 km
2019/04/21 01:54 KNAK 210154Z AUTO 19006KT 10SM CLR 18/06 A2978 RMK AO2 SLP088 T01830056 $
KAPG - Aberdeen/Phillip, Maryland, USA
Distance from station: NNE 21mi, 34km
Updated: Fri, 19-Apr-2019 7:52pm EDT
NOT Current
Light rain, Mist, Overcast
Light rain, Mist, Overcast
 Wind from SSE
Wind: SSE 12 mph , 19 km/h, Gust: 23 mph , 37 km/h
Temperature: 70°F , 21°C
Dew Point: 68°F , 20°C
Humidity: 94%
Barometer: 29.65 inHg , 1004.1 hPa
Summary: Light rain, Mist
Clouds: Overcast
Visibility: 5 miles , 8 km
Cloud details: Mostly cloudy 2500 ft
Overcast 4000 ft
2019/04/19 23:52 KAPG 192352Z 15010G20KT 5SM -RA BR BKN025 OVC040 21/20 A2965 $
 
KDMH - Baltimore/Dwntwn, Maryland, USA
Distance from station: WNW 21mi, 34km
Updated: Sat, 20-Apr-2019 9:54pm EDT

 
Temperature: 64°F , 18°C
Dew Point: 39°F , 4°C
Humidity: 40%
Barometer: 29.77 inHg , 1008.1 hPa
2019/04/21 01:54 KDMH 210154Z AUTO 18/04 A2977 RMK AO1 SLP082 T01830044
KBWI - Balto/Wash Intl, Maryland, USA
Distance from station: W 23mi, 37km
Updated: Sat, 20-Apr-2019 9:54pm EDT
Partly cloudy
Partly cloudy
 Wind from SW
Wind: SW 6 mph , 9 km/h
Temperature: 64°F , 18°C
Dew Point: 41°F , 5°C
Humidity: 43%
Barometer: 29.78 inHg , 1008.5 hPa
Clouds: Partly cloudy
Visibility: 10 miles , 16 km
Cloud details: Partly cloudy 11000 ft
Partly cloudy 25000 ft
2019/04/21 01:54 KBWI 210154Z 22005KT 10SM SCT110 SCT250 18/05 A2978 RMK AO2 SLP082 T01780050 $
 
KESN - Easton/Newnam, Maryland, USA
Distance from station: SSE 27mi, 44km
Updated: Sat, 20-Apr-2019 10:37pm EDT
Partly cloudy
Partly cloudy
 Wind from SSE
Wind: SSE 7 mph , 11 km/h
Temperature: 64°F , 18°C
Dew Point: 52°F , 11°C
Humidity: 64%
Barometer: 29.85 inHg , 1010.8 hPa
Clouds: Partly cloudy
Visibility: 10 miles , 16 km
Cloud details: Mostly cloudy 7000 ft
Partly cloudy 10000 ft
2019/04/21 02:37 KESN 210237Z AUTO 16006KT 10SM BKN070 SCT100 18/11 A2985 RMK AO2 T01810111
KFME - Fort Meade, Maryland, USA
Distance from station: WSW 28mi, 45km
Updated: Sat, 20-Apr-2019 10:21pm EDT
Overcast
Overcast
 Wind from SSW
Wind: SSW 6 mph , 9 km/h
Temperature: 59°F , 15°C
Dew Point: 45°F , 7°C
Humidity: 59%
Barometer: 29.81 inHg , 1009.5 hPa
Clouds: Overcast
Visibility: 10 miles , 16 km
Cloud details: Partly cloudy 7500 ft
Overcast 10000 ft
2019/04/21 02:21 KFME 210221Z AUTO 21005KT 10SM SCT075 OVC100 15/07 A2981 RMK AO1
 
KCGS - College Park, Maryland, USA
Distance from station: WSW 38mi, 61km
Updated: Sat, 20-Apr-2019 10:24pm EDT
Overcast
Overcast
 Wind from SSW
Wind: SSW 7 mph , 11 km/h
Temperature: 63°F , 17°C
Dew Point: 37°F , 3°C
Humidity: 39%
Barometer: 29.79 inHg , 1008.8 hPa
Clouds: Overcast
Visibility: 10 miles , 16 km
Cloud details: Mostly cloudy 7500 ft
Overcast 9000 ft
2019/04/21 02:24 KCGS 210224Z AUTO 21006KT 10SM BKN075 OVC090 17/03 A2979 RMK AO1 T01720028
KADW - Andrews Afb, Maryland, USA
Distance from station: SW 41mi, 66km
Updated: Sat, 20-Apr-2019 9:56pm EDT
Overcast
Overcast
 Wind from SW
Wind: SW 7 mph , 11 km/h
Temperature: 63°F , 17°C
Dew Point: 41°F , 5°C
Humidity: 45%
Barometer: 29.78 inHg , 1008.5 hPa
Clouds: Overcast
Visibility: 10 miles , 16 km
Cloud details: Mostly cloudy 8000 ft
Overcast 9500 ft
2019/04/21 01:56 KADW 210156Z AUTO 22006KT 10SM BKN080 OVC095 17/05 A2978 RMK AO2 SLP090 T01670050 $
 
KDOV - Dover Afb, Delaware, USA
Distance from station: E 42mi, 68km
Updated: Sat, 20-Apr-2019 9:56pm EDT
Clear
Clear
 Wind from SE
Wind: SE 7 mph , 11 km/h
Temperature: 59°F , 15°C
Dew Point: 50°F , 10°C
Humidity: 72%
Barometer: 29.80 inHg , 1009.1 hPa
Clouds: Clear
Visibility: 10 miles , 16 km
2019/04/21 01:56 KDOV 210156Z 14006KT 10SM CLR 15/10 A2980 RMK AO2A SLP094 T01530103 $
KCGE - Cambridge-Dorch, Maryland, USA
Distance from station: SSE 45mi, 73km
Updated: Sat, 20-Apr-2019 10:20pm EDT
Overcast
Overcast
 Wind from SSE
Wind: SSE 6 mph , 9 km/h
Temperature: 63°F , 17°C
Dew Point: 55°F , 13°C
Humidity: 77%
Barometer: 29.81 inHg , 1009.5 hPa
Clouds: Overcast
Visibility: 10 miles , 16 km
Cloud details: Overcast 6000 ft
2019/04/21 02:20 KCGE 210220Z AUTO 15005KT 10SM OVC060 17/13 A2981 RMK A01
 
KDCA - Washington/Natl, Washington D.c., USA
Distance from station: WSW 47mi, 76km
Updated: Sat, 20-Apr-2019 9:52pm EDT
Mostly cloudy
Mostly cloudy
 Wind from SSW
Wind: SSW 12 mph , 19 km/h
Temperature: 64°F , 18°C
Dew Point: 39°F , 4°C
Humidity: 40%
Barometer: 29.79 inHg , 1008.8 hPa
Clouds: Mostly cloudy
Visibility: 10 miles , 16 km
Cloud details: Few Clouds 7500 ft
Mostly cloudy 10000 ft
Mostly cloudy 25000 ft
2019/04/21 01:52 KDCA 210152Z 21010KT 10SM FEW075 BKN100 BKN250 18/04 A2979 RMK AO2 SLP088 T01780039
KGAI - Gaithersburg, Maryland, USA
Distance from station: W 49mi, 78km
Updated: Sat, 20-Apr-2019 9:56pm EDT
Overcast
Overcast
 Wind from SW
Wind: SW 8 mph , 13 km/h
Temperature: 61°F , 16°C
Dew Point: 43°F , 6°C
Humidity: 52%
Barometer: 29.80 inHg , 1009.1 hPa
Clouds: Overcast
Visibility: 10 miles , 16 km
Cloud details: Overcast 8500 ft
2019/04/21 01:56 KGAI 210156Z AUTO 22007KT 10SM OVC085 16/06 A2980 RMK AO2 SLP117 T01610056
 
KILG - Wilmington, Delaware, USA
Distance from station: NE 49mi, 79km
Updated: Sat, 20-Apr-2019 9:51pm EDT
Clear
Clear
 Wind from SSE
Wind: SSE 10 mph , 17 km/h
Temperature: 61°F , 16°C
Dew Point: 54°F , 12°C
Humidity: 77%
Barometer: 29.81 inHg , 1009.5 hPa
Clouds: Clear
Visibility: 10 miles , 16 km
2019/04/21 01:51 KILG 210151Z 15009KT 10SM CLR 16/12 A2981 RMK AO2 SLP093 T01560117 $
KDMW - Carroll Cnty, Maryland, USA
Distance from station: NW 50mi, 80km
Updated: Sat, 20-Apr-2019 10:20pm EDT
Mostly cloudy
Mostly cloudy
 Wind from SW
Wind: SW 10 mph , 17 km/h
Temperature: 61°F , 16°C
Dew Point: 45°F , 7°C
Humidity: 55%
Barometer: 29.79 inHg , 1008.8 hPa
Clouds: Mostly cloudy
Visibility: 10 miles , 16 km
Cloud details: Mostly cloudy 10000 ft
2019/04/21 02:20 KDMW 210220Z AUTO 22009KT 10SM BKN100 16/07 A2979 RMK AO2